createdAt,value
2016-04-27T00:00:05.479Z,3.32
2016-04-27T00:01:05.497Z,3.36
2016-04-27T00:02:05.499Z,3.36
2016-04-27T00:03:05.502Z,3.34
2016-04-27T00:04:05.537Z,3.4
2016-04-27T00:05:05.540Z,3.37
2016-04-27T00:06:05.526Z,3.4
2016-04-27T00:07:05.545Z,3.4
2016-04-27T00:08:05.562Z,3.41
2016-04-27T00:09:05.566Z,3.29
2016-04-27T00:10:05.584Z,3.34
2016-04-27T00:11:05.586Z,3.37
2016-04-27T00:12:05.589Z,3.41
2016-04-27T00:13:05.607Z,3.4
2016-04-27T00:14:05.642Z,3.34
2016-04-27T00:15:05.628Z,3.34
2016-04-27T00:16:05.631Z,3.41
2016-04-27T00:17:05.633Z,3.37
2016-04-27T00:18:05.652Z,3.36
2016-04-27T00:19:05.655Z,3.34
2016-04-27T00:20:09.520Z,3.34
2016-04-27T00:21:08.520Z,3.4
2016-04-27T00:22:06.163Z,3.41
2016-04-27T00:23:05.681Z,3.36
2016-04-27T00:24:05.684Z,3.34
2016-04-27T00:25:05.718Z,3.42
2016-04-27T00:26:05.721Z,3.41
2016-04-27T00:27:05.723Z,3.32
2016-04-27T00:28:05.726Z,3.37
2016-04-27T00:29:05.729Z,3.37
2016-04-27T00:30:05.747Z,3.41
2016-04-27T00:31:05.765Z,3.42
2016-04-27T00:32:05.783Z,3.34
2016-04-27T00:33:05.786Z,3.37
2016-04-27T00:34:05.789Z,3.5
2016-04-27T00:35:05.776Z,3.5
2016-04-27T00:36:09.341Z,3.55
2016-04-27T00:37:05.859Z,3.48
2016-04-27T00:38:05.799Z,3.47
2016-04-27T00:39:19.929Z,3.48
2016-04-27T00:40:05.807Z,3.5
2016-04-27T00:41:05.843Z,3.48
2016-04-27T00:42:06.289Z,3.37
2016-04-27T00:43:05.858Z,3.37
2016-04-27T00:44:05.780Z,3.48
2016-04-27T00:45:05.962Z,3.51
2016-04-27T00:46:05.871Z,3.5
2016-04-27T00:47:05.890Z,3.55
2016-04-27T00:48:05.876Z,3.59
2016-04-27T00:49:05.910Z,3.55
2016-04-27T00:50:05.585Z,3.63
2016-04-27T00:51:05.995Z,3.62
2016-04-27T00:52:05.934Z,3.48
2016-04-27T00:53:05.921Z,3.5
2016-04-27T00:54:05.986Z,3.48
2016-04-27T00:55:05.941Z,3.55
2016-04-27T00:56:05.961Z,3.51
2016-04-27T00:57:05.964Z,3.56
2016-04-27T00:58:05.966Z,3.62
2016-04-27T00:59:05.983Z,3.59
2016-04-27T01:00:06.003Z,3.63
2016-04-27T01:01:06.005Z,3.58
2016-04-27T01:02:06.024Z,3.58
2016-04-27T01:03:06.011Z,3.56
2016-04-27T01:04:06.013Z,3.55
2016-04-27T01:05:06.047Z,3.59
2016-04-27T01:06:06.143Z,3.53
2016-04-27T01:07:05.991Z,3.58
2016-04-27T01:08:06.055Z,3.6
2016-04-27T01:09:06.073Z,3.59
2016-04-27T01:10:06.077Z,3.68
2016-04-27T01:11:06.094Z,3.68
2016-04-27T01:12:06.096Z,3.73
2016-04-27T01:13:06.099Z,3.68
2016-04-27T01:14:06.134Z,3.66
2016-04-27T01:15:06.121Z,3.76
2016-04-27T01:16:06.139Z,3.7
2016-04-27T01:17:06.142Z,3.76
2016-04-27T01:18:06.145Z,3.68
2016-04-27T01:19:06.162Z,3.65
2016-04-27T01:20:06.165Z,3.65
2016-04-27T01:21:06.184Z,3.66
2016-04-27T01:22:06.739Z,3.69
2016-04-27T01:23:06.041Z,3.7
2016-04-27T01:24:06.199Z,3.66
2016-04-27T01:25:06.202Z,3.73
2016-04-27T01:26:06.220Z,3.77
2016-04-27T01:27:06.239Z,3.76
2016-04-27T01:28:07.085Z,3.69
2016-04-27T01:29:06.260Z,3.76
2016-04-27T01:30:06.263Z,3.66
2016-04-27T01:31:06.266Z,3.66
2016-04-27T01:32:06.268Z,3.73
2016-04-27T01:33:06.271Z,3.69
2016-04-27T01:34:06.289Z,3.74
2016-04-27T01:35:06.308Z,3.78
2016-04-27T01:36:06.560Z,3.69
2016-04-27T01:37:07.750Z,3.76
2016-04-27T01:38:06.332Z,3.74
2016-04-27T01:39:06.334Z,3.74
2016-04-27T01:40:06.337Z,3.76
2016-04-27T01:41:06.354Z,3.8
2016-04-27T01:42:06.388Z,3.76
2016-04-27T01:43:06.376Z,3.76
2016-04-27T01:44:06.393Z,3.73
2016-04-27T01:45:06.381Z,3.77
2016-04-27T01:46:06.399Z,3.73
2016-04-27T01:47:06.402Z,3.74
2016-04-27T01:48:06.764Z,3.76
2016-04-27T01:49:06.439Z,3.73
2016-04-27T01:50:06.443Z,3.69
2016-04-27T01:51:06.289Z,3.77
2016-04-27T01:52:06.448Z,3.77
2016-04-27T01:53:07.466Z,3.73
2016-04-27T01:54:06.469Z,3.7
2016-04-27T01:55:06.487Z,3.68
2016-04-27T01:56:06.505Z,3.77
2016-04-27T01:57:06.493Z,3.77
2016-04-27T01:58:06.495Z,3.73
2016-04-27T01:59:06.529Z,3.77
2016-04-27T02:00:06.516Z,3.74
2016-04-27T02:01:06.534Z,3.77
2016-04-27T02:02:06.553Z,3.78
2016-04-27T02:03:06.571Z,3.81
2016-04-27T02:04:06.558Z,3.77
2016-04-27T02:05:06.561Z,3.77
2016-04-27T02:06:06.408Z,3.84
2016-04-27T02:07:06.598Z,3.86
2016-04-27T02:08:06.584Z,3.81
2016-04-27T02:09:06.603Z,3.78
2016-04-27T02:10:06.637Z,3.73
2016-04-27T02:11:06.625Z,3.77
2016-04-27T02:12:06.642Z,3.77
2016-04-27T02:13:06.644Z,3.78
2016-04-27T02:14:06.647Z,3.83
2016-04-27T02:15:06.650Z,3.76
2016-04-27T02:16:06.730Z,3.74
2016-04-27T02:17:06.499Z,3.69
2016-04-27T02:18:07.018Z,3.76
2016-04-27T02:19:06.677Z,3.73
2016-04-27T02:20:06.695Z,3.73
2016-04-27T02:21:07.151Z,3.78
2016-04-27T02:22:06.716Z,3.77
2016-04-27T02:23:07.360Z,3.74
2016-04-27T02:24:06.737Z,3.63
2016-04-27T02:25:06.740Z,3.73
2016-04-27T02:26:06.758Z,3.63
2016-04-27T02:27:06.761Z,3.73
2016-04-27T02:28:06.778Z,3.66
2016-04-27T02:29:06.781Z,3.65
2016-04-27T02:30:06.801Z,3.63
2016-04-27T02:31:06.787Z,3.63
2016-04-27T02:32:06.789Z,3.6
2016-04-27T02:33:06.808Z,3.58
2016-04-27T02:34:06.811Z,3.58
2016-04-27T02:35:06.829Z,3.51
2016-04-27T02:36:06.753Z,3.56
2016-04-27T02:37:06.945Z,3.55
2016-04-27T02:38:06.852Z,3.51
2016-04-27T02:39:06.856Z,3.55
2016-04-27T02:40:06.874Z,3.51
2016-04-27T02:41:06.877Z,3.59
2016-04-27T02:42:06.880Z,3.55
2016-04-27T02:43:06.890Z,3.63
2016-04-27T02:44:06.965Z,3.55
2016-04-27T02:45:07.009Z,3.65
2016-04-27T02:46:07.055Z,3.58
2016-04-27T02:47:07.114Z,3.53
2016-04-27T02:48:07.138Z,3.58
2016-04-27T02:49:07.032Z,3.53
2016-04-27T02:50:07.190Z,3.45
2016-04-27T02:51:07.428Z,3.51
2016-04-27T02:52:07.117Z,3.47
2016-04-27T02:53:07.258Z,3.48
2016-04-27T02:54:07.283Z,3.53
2016-04-27T02:55:07.305Z,3.45
2016-04-27T02:56:07.299Z,3.37
2016-04-27T02:57:07.321Z,3.34
2016-04-27T02:58:07.329Z,3.44
2016-04-27T02:59:07.349Z,3.37
2016-04-27T03:00:07.355Z,3.34
2016-04-27T03:01:07.359Z,3.36
2016-04-27T03:02:07.379Z,3.4
2016-04-27T03:03:07.399Z,3.34
2016-04-27T03:04:07.402Z,3.36
2016-04-27T03:05:07.406Z,3.29
2016-04-27T03:06:07.425Z,3.31
2016-04-27T03:07:07.757Z,3.32
2016-04-27T03:08:07.432Z,3.37
2016-04-27T03:09:07.450Z,3.34
2016-04-27T03:10:07.314Z,3.34
2016-04-27T03:11:07.456Z,3.32
2016-04-27T03:12:07.491Z,3.25
2016-04-27T03:13:07.495Z,3.32
2016-04-27T03:14:07.482Z,3.31
2016-04-27T03:15:07.500Z,3.34
2016-04-27T03:16:07.502Z,3.42
2016-04-27T03:17:07.536Z,3.34
2016-04-27T03:18:07.539Z,3.32
2016-04-27T03:19:07.541Z,3.31
2016-04-27T03:20:07.560Z,3.36
2016-04-27T03:21:07.547Z,3.37
2016-04-27T03:22:07.628Z,3.32
2016-04-27T03:23:07.552Z,3.4
2016-04-27T03:24:07.571Z,3.37
2016-04-27T03:25:07.589Z,3.4
2016-04-27T03:26:07.608Z,3.34
2016-04-27T03:27:07.610Z,3.42
2016-04-27T03:28:07.612Z,3.36
2016-04-27T03:29:07.616Z,3.4
2016-04-27T03:30:07.618Z,3.36
2016-04-27T03:31:07.636Z,3.36
2016-04-27T03:32:07.639Z,3.29
2016-04-27T03:33:07.641Z,3.32
2016-04-27T03:34:07.691Z,3.31
2016-04-27T03:35:07.679Z,3.36
2016-04-27T03:36:07.696Z,3.32
2016-04-27T03:37:08.871Z,3.36
2016-04-27T03:38:07.718Z,3.32
2016-04-27T03:39:07.704Z,3.32
2016-04-27T03:40:07.739Z,3.32
2016-04-27T03:41:07.726Z,3.28
2016-04-27T03:42:07.728Z,3.34
2016-04-27T03:43:07.731Z,3.28
2016-04-27T03:44:07.734Z,3.25
2016-04-27T03:45:07.752Z,3.36
2016-04-27T03:46:07.755Z,3.32
2016-04-27T03:47:07.773Z,3.37
2016-04-27T03:48:07.792Z,3.36
2016-04-27T03:49:07.778Z,3.32
2016-04-27T03:50:07.797Z,3.37
2016-04-27T03:51:07.814Z,3.41
2016-04-27T03:52:07.662Z,3.41
2016-04-27T03:53:07.836Z,3.37
2016-04-27T03:54:07.823Z,3.45
2016-04-27T03:55:07.826Z,3.47
2016-04-27T03:56:07.844Z,3.4
2016-04-27T03:57:07.847Z,3.45
2016-04-27T03:58:07.865Z,3.47
2016-04-27T03:59:07.868Z,3.5
2016-04-27T04:00:07.886Z,3.44
2016-04-27T04:01:07.904Z,3.34
2016-04-27T04:02:07.891Z,3.47
2016-04-27T04:03:07.910Z,3.41
2016-04-27T04:04:07.913Z,3.32
2016-04-27T04:05:07.916Z,3.34
2016-04-27T04:06:07.919Z,3.37
2016-04-27T04:07:07.812Z,3.4
2016-04-27T04:08:07.955Z,3.37
2016-04-27T04:09:07.958Z,3.4
2016-04-27T04:10:07.961Z,3.41
2016-04-27T04:11:07.979Z,3.4
2016-04-27T04:12:07.983Z,3.34
2016-04-27T04:13:07.985Z,3.34
2016-04-27T04:14:08.002Z,3.36
2016-04-27T04:15:08.021Z,3.42
2016-04-27T04:16:08.024Z,3.4
2016-04-27T04:17:08.026Z,3.31
2016-04-27T04:18:08.030Z,3.37
2016-04-27T04:19:08.032Z,3.36
2016-04-27T04:20:08.066Z,3.29
2016-04-27T04:21:08.054Z,3.41
2016-04-27T04:22:07.916Z,3.42
2016-04-27T04:23:08.078Z,3.41
2016-04-27T04:24:08.111Z,3.32
2016-04-27T04:25:08.099Z,3.41
2016-04-27T04:26:08.101Z,3.51
2016-04-27T04:27:08.120Z,3.42
2016-04-27T04:28:08.122Z,3.55
2016-04-27T04:29:08.157Z,3.44
2016-04-27T04:30:08.160Z,3.5
2016-04-27T04:31:08.131Z,3.42
2016-04-27T04:32:08.165Z,3.44
2016-04-27T04:33:08.168Z,3.5
2016-04-27T04:34:08.170Z,3.45
2016-04-27T04:35:08.173Z,3.48
2016-04-27T04:36:08.190Z,3.48
2016-04-27T04:37:08.193Z,3.47
2016-04-27T04:38:08.212Z,3.48
2016-04-27T04:39:08.215Z,3.6
2016-04-27T04:40:08.217Z,3.47
2016-04-27T04:41:08.220Z,3.48
2016-04-27T04:42:08.254Z,3.53
2016-04-27T04:43:08.256Z,3.58
2016-04-27T04:44:08.276Z,3.6
2016-04-27T04:45:08.278Z,3.58
2016-04-27T04:46:08.281Z,3.62
2016-04-27T04:47:08.283Z,3.53
2016-04-27T04:48:08.301Z,3.58
2016-04-27T04:49:08.304Z,3.48
2016-04-27T04:50:08.322Z,3.53
2016-04-27T04:51:08.325Z,3.53
2016-04-27T04:52:08.328Z,3.48
2016-04-27T04:53:08.330Z,3.51
2016-04-27T04:54:08.334Z,3.5
2016-04-27T04:55:08.336Z,3.5
2016-04-27T04:56:08.354Z,3.56
2016-04-27T04:57:08.372Z,3.58
2016-04-27T04:58:08.375Z,3.62
2016-04-27T04:59:08.393Z,3.59
2016-04-27T05:00:08.380Z,3.59
2016-04-27T05:01:08.400Z,3.58
2016-04-27T05:02:08.464Z,3.59
2016-04-27T05:03:08.436Z,3.59
2016-04-27T05:04:08.438Z,3.68
2016-04-27T05:05:08.441Z,3.73
2016-04-27T05:06:08.444Z,3.63
2016-04-27T05:07:08.477Z,3.63
2016-04-27T05:08:08.465Z,3.73
2016-04-27T05:09:08.482Z,3.74
2016-04-27T05:10:08.485Z,3.63
2016-04-27T05:11:08.488Z,3.66
2016-04-27T05:12:08.507Z,3.68
2016-04-27T05:13:08.510Z,3.76
2016-04-27T05:14:08.512Z,3.74
2016-04-27T05:15:08.531Z,3.66
2016-04-27T05:16:08.548Z,3.65
2016-04-27T05:17:08.551Z,3.69
2016-04-27T05:18:08.553Z,3.65
2016-04-27T05:19:08.556Z,3.77
2016-04-27T05:20:08.559Z,3.76
2016-04-27T05:21:08.578Z,3.78
2016-04-27T05:22:08.581Z,3.76
2016-04-27T05:23:08.583Z,3.78
2016-04-27T05:24:08.602Z,3.8
2016-04-27T05:25:08.619Z,3.78
2016-04-27T05:26:08.622Z,3.74
2016-04-27T05:27:08.625Z,3.76
2016-04-27T05:28:08.643Z,3.7
2016-04-27T05:29:08.647Z,3.74
2016-04-27T05:30:08.649Z,3.87
2016-04-27T05:31:08.667Z,3.86
2016-04-27T05:32:08.686Z,3.8
2016-04-27T05:33:08.672Z,3.86
2016-04-27T05:34:08.675Z,3.8
2016-04-27T05:35:08.709Z,3.77
2016-04-27T05:36:08.712Z,3.83
2016-04-27T05:37:09.121Z,3.87
2016-04-27T05:38:08.733Z,3.91
2016-04-27T05:39:08.751Z,3.94
2016-04-27T05:40:08.770Z,3.92
2016-04-27T05:41:08.741Z,3.92
2016-04-27T05:42:08.759Z,3.87
2016-04-27T05:43:08.793Z,3.92
2016-04-27T05:44:08.795Z,3.96
2016-04-27T05:45:08.798Z,3.95
2016-04-27T05:46:08.801Z,3.94
2016-04-27T05:47:08.804Z,3.95
2016-04-27T05:48:08.823Z,4.05
2016-04-27T05:49:08.809Z,3.96
2016-04-27T05:50:09.031Z,4.1
2016-04-27T05:51:08.845Z,4.06
2016-04-27T05:52:08.973Z,4.05
2016-04-27T05:53:09.320Z,4.01
2016-04-27T05:54:08.870Z,4.02
2016-04-27T05:55:08.872Z,3.98
2016-04-27T05:56:08.891Z,4.05
2016-04-27T05:57:08.894Z,4.05
2016-04-27T05:58:08.897Z,4.06
2016-04-27T05:59:08.930Z,4.08
2016-04-27T06:00:08.933Z,4.14
2016-04-27T06:01:08.935Z,4.16
2016-04-27T06:02:08.938Z,4.13
2016-04-27T06:03:09.050Z,4.19
2016-04-27T06:04:08.960Z,4.22
2016-04-27T06:05:08.977Z,4.32
2016-04-27T06:06:08.996Z,4.26
2016-04-27T06:07:09.810Z,4.35
2016-04-27T06:08:09.923Z,4.41
2016-04-27T06:09:09.004Z,4.41
2016-04-27T06:10:09.021Z,4.37
2016-04-27T06:11:09.010Z,4.45
2016-04-27T06:12:09.027Z,4.44
2016-04-27T06:13:09.062Z,4.5
2016-04-27T06:14:09.096Z,4.49
2016-04-27T06:15:09.051Z,4.59
2016-04-27T06:16:09.054Z,4.66
2016-04-27T06:17:09.072Z,4.7
2016-04-27T06:18:09.090Z,4.86
2016-04-27T06:19:09.093Z,4.71
2016-04-27T06:20:09.127Z,4.74
2016-04-27T06:21:09.146Z,4.93
2016-04-27T06:22:09.148Z,5.02
2016-04-27T06:23:09.136Z,5.11
2016-04-27T06:24:09.139Z,5.11
2016-04-27T06:25:09.141Z,5.21
2016-04-27T06:26:09.190Z,5.25
2016-04-27T06:27:09.192Z,5.21
2016-04-27T06:28:09.195Z,5.28
2016-04-27T06:29:09.198Z,5.28
2016-04-27T06:30:09.216Z,5.3
2016-04-27T06:31:09.219Z,5.41
2016-04-27T06:32:09.222Z,5.41
2016-04-27T06:33:09.224Z,5.39
2016-04-27T06:34:09.258Z,5.46
2016-04-27T06:35:09.277Z,5.46
2016-04-27T06:36:09.248Z,5.44
2016-04-27T06:37:09.001Z,5.61
2016-04-27T06:38:09.034Z,5.66
2016-04-27T06:39:09.288Z,5.75
2016-04-27T06:40:09.306Z,5.73
2016-04-27T06:41:09.324Z,5.71
2016-04-27T06:42:09.343Z,5.69
2016-04-27T06:43:09.329Z,5.72
2016-04-27T06:44:09.348Z,5.71
2016-04-27T06:45:09.351Z,5.73
2016-04-27T06:46:09.353Z,5.65
2016-04-27T06:47:09.371Z,5.62
2016-04-27T06:48:09.390Z,5.56
2016-04-27T06:49:09.393Z,5.56
2016-04-27T06:50:09.412Z,5.66
2016-04-27T06:51:09.257Z,5.64
2016-04-27T06:52:09.447Z,5.64
2016-04-27T06:53:09.435Z,5.66
2016-04-27T06:54:09.437Z,5.66
2016-04-27T06:55:09.472Z,5.75
2016-04-27T06:56:13.505Z,5.68
2016-04-27T06:57:09.477Z,5.71
2016-04-27T06:58:09.480Z,5.69
2016-04-27T06:59:09.498Z,5.68
2016-04-27T07:00:09.500Z,5.62
2016-04-27T07:01:09.519Z,5.62
2016-04-27T07:02:09.522Z,5.71
2016-04-27T07:03:09.524Z,5.66
2016-04-27T07:04:09.558Z,5.48
2016-04-27T07:05:09.560Z,5.57
2016-04-27T07:06:09.563Z,5.46
2016-04-27T07:07:10.519Z,5.61
2016-04-27T07:08:10.850Z,5.61
2016-04-27T07:09:09.588Z,5.66
2016-04-27T07:10:09.605Z,5.61
2016-04-27T07:11:09.608Z,5.51
2016-04-27T07:12:09.627Z,5.44
2016-04-27T07:13:09.629Z,5.44
2016-04-27T07:14:09.648Z,5.43
2016-04-27T07:15:09.650Z,5.41
2016-04-27T07:16:09.653Z,5.33
2016-04-27T07:17:09.687Z,5.35
2016-04-27T07:18:09.690Z,5.38
2016-04-27T07:19:09.693Z,5.36
2016-04-27T07:20:09.710Z,5.43
2016-04-27T07:21:09.713Z,5.39
2016-04-27T07:22:10.215Z,5.32
2016-04-27T07:23:10.797Z,5.38
2016-04-27T07:24:09.752Z,5.47
2016-04-27T07:25:09.756Z,5.39
2016-04-27T07:26:09.789Z,5.47
2016-04-27T07:27:09.775Z,5.51
2016-04-27T07:28:09.795Z,5.65
2016-04-27T07:29:09.797Z,5.57
2016-04-27T07:30:09.799Z,5.62
2016-04-27T07:31:09.819Z,5.51
2016-04-27T07:32:09.821Z,5.44
2016-04-27T07:33:09.839Z,5.35
2016-04-27T07:34:09.858Z,5.39
2016-04-27T07:35:09.844Z,5.43
2016-04-27T07:36:09.878Z,5.33
2016-04-27T07:37:11.397Z,5.28
2016-04-27T07:38:10.383Z,5.28
2016-04-27T07:39:09.902Z,5.29
2016-04-27T07:40:09.921Z,5.26
2016-04-27T07:41:09.923Z,5.28
2016-04-27T07:42:09.926Z,5.12
2016-04-27T07:43:09.944Z,5.02
2016-04-27T07:44:09.947Z,5.07
2016-04-27T07:45:09.965Z,5.15
2016-04-27T07:46:09.951Z,5.15
2016-04-27T07:47:09.971Z,5.05
2016-04-27T07:48:09.990Z,5.05
2016-04-27T07:49:09.992Z,5.07
2016-04-27T07:50:09.995Z,5.25
2016-04-27T07:51:10.012Z,5.29
2016-04-27T07:52:11.140Z,5.33
2016-04-27T07:53:10.799Z,5.53
2016-04-27T07:54:10.051Z,5.69
2016-04-27T07:55:10.054Z,5.94
2016-04-27T07:56:10.073Z,5.91
2016-04-27T07:57:10.059Z,6.08
2016-04-27T07:58:10.078Z,6.09
2016-04-27T07:59:10.096Z,6.27
2016-04-27T08:00:10.099Z,6.22
2016-04-27T08:01:10.102Z,6.09
2016-04-27T08:02:10.136Z,6.08
2016-04-27T08:03:10.155Z,6.01
2016-04-27T08:04:10.141Z,6.02
2016-04-27T08:05:10.456Z,6.01
2016-04-27T08:06:10.208Z,6.04
2016-04-27T08:07:11.962Z,6.14
2016-04-27T08:08:10.527Z,6.27
2016-04-27T08:09:09.889Z,6.3
2016-04-27T08:10:10.204Z,6.36
2016-04-27T08:11:10.222Z,6.42
2016-04-27T08:12:10.241Z,6.38
2016-04-27T08:13:10.274Z,6.36
2016-04-27T08:14:10.277Z,6.38
2016-04-27T08:15:10.265Z,6.39
2016-04-27T08:16:10.283Z,6.41
2016-04-27T08:17:10.270Z,6.41
2016-04-27T08:18:10.288Z,6.42
2016-04-27T08:19:10.306Z,6.28
2016-04-27T08:20:10.341Z,6.28
2016-04-27T08:21:10.328Z,6.27
2016-04-27T08:22:11.456Z,6.26
2016-04-27T08:23:12.959Z,6.39
2016-04-27T08:24:10.351Z,6.42
2016-04-27T08:25:10.354Z,6.45
2016-04-27T08:26:10.387Z,6.54
2016-04-27T08:27:10.406Z,6.54
2016-04-27T08:28:10.408Z,6.63
2016-04-27T08:29:10.412Z,6.78
2016-04-27T08:30:10.477Z,6.88
2016-04-27T08:31:10.433Z,7.14
2016-04-27T08:32:10.451Z,7.07
2016-04-27T08:33:10.450Z,7.13
2016-04-27T08:34:10.486Z,7.25
2016-04-27T08:35:10.503Z,7.21
2016-04-27T08:36:10.490Z,7.35
2016-04-27T08:37:13.525Z,7.43
2016-04-27T08:38:10.542Z,7.45
2016-04-27T08:39:10.514Z,7.63
2016-04-27T08:40:10.532Z,7.73
2016-04-27T08:41:10.566Z,7.8
2016-04-27T08:42:10.569Z,7.8
2016-04-27T08:43:10.571Z,7.85
2016-04-27T08:44:10.574Z,7.94
2016-04-27T08:45:10.592Z,7.82
2016-04-27T08:46:10.611Z,7.77
2016-04-27T08:47:10.613Z,7.61
2016-04-27T08:48:10.631Z,7.51
2016-04-27T08:49:10.651Z,7.5
2016-04-27T08:50:10.668Z,7.53
2016-04-27T08:51:10.656Z,7.66
2016-04-27T08:52:10.799Z,7.8
2016-04-27T08:53:13.707Z,7.82
2016-04-27T08:54:10.695Z,7.87
2016-04-27T08:55:10.712Z,7.85
2016-04-27T08:56:10.826Z,7.87
2016-04-27T08:57:10.750Z,7.87
2016-04-27T08:58:10.752Z,7.82
2016-04-27T08:59:10.756Z,7.69
2016-04-27T09:00:10.773Z,7.47
2016-04-27T09:01:10.792Z,7.51
2016-04-27T09:02:10.810Z,7.45
2016-04-27T09:03:10.828Z,7.48
2016-04-27T09:04:10.816Z,7.51
2016-04-27T09:05:10.834Z,7.47
2016-04-27T09:06:10.836Z,7.43
2016-04-27T09:07:10.855Z,7.39
2016-04-27T09:08:10.717Z,7.38
2016-04-27T09:09:10.875Z,7.35
2016-04-27T09:10:10.910Z,7.42
2016-04-27T09:11:10.913Z,7.57
2016-04-27T09:12:10.916Z,7.58
2016-04-27T09:13:10.933Z,7.91
2016-04-27T09:14:10.935Z,7.94
2016-04-27T09:15:10.954Z,8.08
2016-04-27T09:16:10.207Z,8.08
2016-04-27T09:17:11.101Z,8.15
2016-04-27T09:18:10.994Z,8.15
2016-04-27T09:19:10.996Z,8.19
2016-04-27T09:20:11.015Z,8.28
2016-04-27T09:21:11.018Z,8.42
2016-04-27T09:22:11.504Z,8.49
2016-04-27T09:23:10.898Z,8.61
2016-04-27T09:24:11.104Z,8.78
2016-04-27T09:25:11.106Z,8.94
2016-04-27T09:26:11.093Z,9.04
2016-04-27T09:27:11.111Z,9.03
2016-04-27T09:28:11.115Z,8.99
2016-04-27T09:29:11.133Z,8.66
2016-04-27T09:30:11.136Z,8.61
2016-04-27T09:31:11.169Z,8.44
2016-04-27T09:32:11.156Z,8.37
2016-04-27T09:33:11.175Z,8.28
2016-04-27T09:34:11.178Z,8.24
2016-04-27T09:35:11.227Z,8.12
2016-04-27T09:36:11.198Z,8.13
2016-04-27T09:37:11.248Z,7.94
2016-04-27T09:38:11.641Z,7.83
2016-04-27T09:39:11.253Z,7.69
2016-04-27T09:40:11.255Z,7.66
2016-04-27T09:41:11.275Z,7.73
2016-04-27T09:42:11.293Z,7.73
2016-04-27T09:43:11.296Z,7.67
2016-04-27T09:44:11.314Z,7.72
2016-04-27T09:45:11.316Z,7.88
2016-04-27T09:46:11.335Z,7.9
2016-04-27T09:47:11.338Z,7.91
2016-04-27T09:48:11.355Z,8.01
2016-04-27T09:49:11.374Z,7.94
2016-04-27T09:50:11.377Z,7.9
2016-04-27T09:51:11.411Z,7.9
2016-04-27T09:52:11.429Z,7.88
2016-04-27T09:53:11.338Z,8
2016-04-27T09:54:11.435Z,8.09
2016-04-27T09:55:11.437Z,8.16
2016-04-27T09:56:11.455Z,8.27
2016-04-27T09:57:11.459Z,8.15
2016-04-27T09:58:11.492Z,8.13
2016-04-27T09:59:11.510Z,8.01
2016-04-27T10:00:11.513Z,8
2016-04-27T10:01:11.515Z,8.05
2016-04-27T10:02:11.534Z,8.06
2016-04-27T10:03:11.553Z,8.16
2016-04-27T10:04:11.555Z,8.06
2016-04-27T10:05:11.558Z,8.05
2016-04-27T10:06:11.576Z,7.98
2016-04-27T10:07:11.595Z,8.12
2016-04-27T10:08:11.488Z,8.05
2016-04-27T10:09:11.630Z,8.13
2016-04-27T10:10:11.634Z,8.27
2016-04-27T10:11:11.636Z,8.34
2016-04-27T10:12:11.654Z,8.33
2016-04-27T10:13:11.658Z,8.28
2016-04-27T10:14:11.691Z,8.42
2016-04-27T10:15:11.710Z,8.44
2016-04-27T10:16:11.696Z,8.45
2016-04-27T10:17:11.716Z,8.51
2016-04-27T10:18:10.968Z,8.3
2016-04-27T10:19:11.736Z,8.36
2016-04-27T10:20:11.755Z,8.34
2016-04-27T10:21:11.788Z,8.45
2016-04-27T10:22:11.780Z,8.49
2016-04-27T10:23:12.280Z,8.71
2016-04-27T10:24:11.798Z,8.76
2016-04-27T10:25:11.800Z,8.94
2016-04-27T10:26:11.835Z,9.03
2016-04-27T10:27:11.853Z,8.94
2016-04-27T10:28:11.856Z,8.94
2016-04-27T10:29:11.876Z,8.78
2016-04-27T10:30:11.893Z,8.78
2016-04-27T10:31:11.881Z,8.81
2016-04-27T10:32:11.898Z,8.94
2016-04-27T10:33:11.917Z,8.94
2016-04-27T10:34:11.936Z,8.92
2016-04-27T10:35:11.939Z,8.99
2016-04-27T10:36:11.956Z,9.34
2016-04-27T10:37:11.959Z,9.47
2016-04-27T10:38:12.040Z,9.56
2016-04-27T10:39:11.995Z,9.64
2016-04-27T10:40:12.014Z,9.62
2016-04-27T10:41:12.032Z,9.72
2016-04-27T10:42:12.051Z,9.69
2016-04-27T10:43:12.069Z,9.64
2016-04-27T10:44:11.916Z,9.56
2016-04-27T10:45:12.340Z,9.56
2016-04-27T10:46:12.093Z,9.46
2016-04-27T10:47:12.096Z,9.36
2016-04-27T10:48:12.130Z,9.37
2016-04-27T10:49:12.132Z,9.32
2016-04-27T10:50:12.135Z,9.47
2016-04-27T10:51:12.169Z,9.51
2016-04-27T10:52:12.187Z,9.64
2016-04-27T10:53:12.065Z,9.62
2016-04-27T10:54:12.208Z,9.65
2016-04-27T10:55:12.211Z,9.59
2016-04-27T10:56:12.229Z,9.46
2016-04-27T10:57:12.450Z,9.48
2016-04-27T10:58:12.251Z,9.48
2016-04-27T10:59:12.284Z,9.55
2016-04-27T11:00:12.306Z,9.47
2016-04-27T11:01:12.293Z,9.41
2016-04-27T11:02:12.327Z,9.29
2016-04-27T11:03:12.330Z,9.37
2016-04-27T11:04:12.161Z,9.51
2016-04-27T11:05:12.336Z,9.39
2016-04-27T11:06:12.354Z,9.37
2016-04-27T11:07:12.402Z,9.34
2016-04-27T11:08:12.500Z,9.44
2016-04-27T11:09:12.393Z,9.44
2016-04-27T11:10:12.411Z,9.44
2016-04-27T11:11:12.446Z,9.39
2016-04-27T11:12:12.463Z,9.43
2016-04-27T11:13:12.451Z,9.25
2016-04-27T11:14:12.469Z,9.08
2016-04-27T11:15:12.487Z,9.13
2016-04-27T11:16:12.506Z,9.04
2016-04-27T11:17:12.508Z,9.04
2016-04-27T11:18:12.527Z,8.97
2016-04-27T11:19:12.545Z,8.94
2016-04-27T11:20:12.548Z,8.97
2016-04-27T11:21:12.565Z,9.06
2016-04-27T11:22:12.584Z,9.08
2016-04-27T11:23:15.259Z,9.1
2016-04-27T11:24:12.589Z,9.04
2016-04-27T11:25:12.623Z,9
2016-04-27T11:26:12.626Z,9.02
2016-04-27T11:27:12.628Z,8.97
2016-04-27T11:28:12.647Z,8.94
2016-04-27T11:29:12.650Z,9.03
2016-04-27T11:30:12.684Z,9.06
2016-04-27T11:31:12.687Z,9.34
2016-04-27T11:32:12.689Z,9.46
2016-04-27T11:33:12.567Z,9.66
2016-04-27T11:34:12.741Z,9.86
2016-04-27T11:35:12.744Z,9.77
2016-04-27T11:36:12.747Z,9.86
2016-04-27T11:37:12.766Z,9.87
2016-04-27T11:38:12.862Z,10.09
2016-04-27T11:39:12.802Z,10.05
2016-04-27T11:40:12.820Z,10.07
2016-04-27T11:41:12.823Z,10.17
2016-04-27T11:42:12.841Z,10.31
2016-04-27T11:43:12.844Z,10.28
2016-04-27T11:44:12.862Z,10.25
2016-04-27T11:45:12.880Z,10.31
2016-04-27T11:46:12.898Z,10.22
2016-04-27T11:47:12.917Z,10.01
2016-04-27T11:48:12.967Z,10.01
2016-04-27T11:49:12.965Z,9.98
2016-04-27T11:50:13.013Z,10.01
2016-04-27T11:51:13.076Z,9.98
2016-04-27T11:52:13.140Z,9.99
2016-04-27T11:53:13.062Z,9.97
2016-04-27T11:54:13.249Z,10.16
2016-04-27T11:55:13.268Z,10.31
2016-04-27T11:56:13.412Z,10.26
2016-04-27T11:57:13.336Z,10.34
2016-04-27T11:58:13.355Z,10.4
2016-04-27T11:59:13.398Z,10.4
2016-04-27T12:00:13.392Z,10.34
2016-04-27T12:01:13.431Z,10.51
2016-04-27T12:02:13.283Z,10.51
2016-04-27T12:03:13.464Z,10.49
2016-04-27T12:04:13.330Z,10.53
2016-04-27T12:05:13.491Z,10.59
2016-04-27T12:06:13.356Z,10.84
2016-04-27T12:07:13.531Z,10.97
2016-04-27T12:08:13.443Z,11.04
2016-04-27T12:09:15.197Z,11.14
2016-04-27T12:10:13.576Z,11.29
2016-04-27T12:11:13.595Z,11.4
2016-04-27T12:12:13.614Z,11.27
2016-04-27T12:13:13.617Z,11.25
2016-04-27T12:14:14.840Z,11.25
2016-04-27T12:15:13.655Z,11.33
2016-04-27T12:16:13.674Z,11.5
2016-04-27T12:17:13.677Z,11.54
2016-04-27T12:18:13.727Z,11.57
2016-04-27T12:19:14.932Z,11.66
2016-04-27T12:20:13.717Z,11.75
2016-04-27T12:21:13.766Z,11.69
2016-04-27T12:22:13.752Z,11.65
2016-04-27T12:23:13.693Z,11.63
2016-04-27T12:24:13.791Z,11.68
2016-04-27T12:25:13.793Z,11.78
2016-04-27T12:26:13.811Z,11.73
2016-04-27T12:27:13.829Z,11.9
2016-04-27T12:28:13.847Z,11.95
2016-04-27T12:29:13.865Z,12
2016-04-27T12:30:13.884Z,12.02
2016-04-27T12:31:13.918Z,12.02
2016-04-27T12:32:13.921Z,11.91
2016-04-27T12:33:13.923Z,11.99
2016-04-27T12:34:13.942Z,12.18
2016-04-27T12:35:13.820Z,12.15
2016-04-27T12:36:13.978Z,12.03
2016-04-27T12:37:13.996Z,11.75
2016-04-27T12:38:14.531Z,11.63
2016-04-27T12:39:16.893Z,11.6
2016-04-27T12:40:14.037Z,11.69
2016-04-27T12:41:14.054Z,11.55
2016-04-27T12:42:14.073Z,11.37
2016-04-27T12:43:14.075Z,11.4
2016-04-27T12:44:14.094Z,11.41
2016-04-27T12:45:14.143Z,11.37
2016-04-27T12:46:14.161Z,11.44
2016-04-27T12:47:14.148Z,11.33
2016-04-27T12:48:14.151Z,11.37
2016-04-27T12:49:14.169Z,11.36
2016-04-27T12:50:14.188Z,11.52
2016-04-27T12:51:14.222Z,11.41
2016-04-27T12:52:14.208Z,11.62
2016-04-27T12:53:14.743Z,11.78
2016-04-27T12:54:15.511Z,11.87
2016-04-27T12:55:14.263Z,11.99
2016-04-27T12:56:14.266Z,12.04
2016-04-27T12:57:14.300Z,12.13
2016-04-27T12:58:14.313Z,12.07
2016-04-27T12:59:14.332Z,12.22
2016-04-27T13:00:14.365Z,12.29
2016-04-27T13:01:14.351Z,12.28
2016-04-27T13:02:14.371Z,12.27
2016-04-27T13:03:14.389Z,12.32
2016-04-27T13:04:14.423Z,12.32
2016-04-27T13:05:14.426Z,12.35
2016-04-27T13:06:14.428Z,12.45
2016-04-27T13:07:14.461Z,12.62
2016-04-27T13:08:14.542Z,12.58
2016-04-27T13:09:15.795Z,12.67
2016-04-27T13:10:14.517Z,12.32
2016-04-27T13:11:14.958Z,12.28
2016-04-27T13:12:14.539Z,12.47
2016-04-27T13:13:14.556Z,12.58
2016-04-27T13:14:14.559Z,12.73
2016-04-27T13:15:14.562Z,12.76
2016-04-27T13:16:14.596Z,12.9
2016-04-27T13:17:14.614Z,12.83